createdAt,value
2018-06-22T00:03:36.433Z,3.90
2018-06-22T00:08:39.878Z,3.97
2018-06-22T00:13:43.060Z,4.53
2018-06-22T00:18:46.923Z,3.73
2018-06-22T00:23:50.542Z,3.93
2018-06-22T00:28:53.677Z,2.67
2018-06-22T00:33:57.049Z,4.90
2018-06-22T00:39:00.140Z,3.67
2018-06-22T00:44:03.381Z,3.80
2018-06-22T00:49:07.458Z,2.60
2018-06-22T00:54:17.433Z,3.40
2018-06-22T00:59:25.476Z,3.80
2018-06-22T01:04:29.832Z,3.10
2018-06-22T01:09:33.536Z,2.57
2018-06-22T01:14:36.425Z,3.10
2018-06-22T01:19:39.738Z,2.60
2018-06-22T01:24:42.876Z,3.70
2018-06-22T01:29:46.017Z,2.90
2018-06-22T01:34:49.090Z,2.87
2018-06-22T01:39:52.448Z,2.90
2018-06-22T01:44:55.881Z,2.47
2018-06-22T01:50:01.664Z,2.07
2018-06-22T01:55:04.761Z,2.00
2018-06-22T02:00:08.135Z,1.57
2018-06-22T02:05:11.115Z,2.30
2018-06-22T02:10:14.435Z,2.30
2018-06-22T02:15:17.506Z,2.67
2018-06-22T02:20:20.759Z,2.70
2018-06-22T02:25:23.845Z,2.10
2018-06-22T02:30:26.920Z,4.03
2018-06-22T02:35:30.665Z,2.93
2018-06-22T02:40:33.600Z,3.13
2018-06-22T02:45:37.468Z,3.60
2018-06-22T02:50:40.453Z,4.77
2018-06-22T02:55:43.454Z,3.90
2018-06-22T03:00:46.705Z,4.50
2018-06-22T03:05:49.634Z,4.77
2018-06-22T03:10:53.404Z,4.37
2018-06-22T03:15:56.818Z,4.13
2018-06-22T03:21:00.700Z,3.17
2018-06-22T03:26:03.831Z,4.07
2018-06-22T03:31:07.728Z,3.33
2018-06-22T03:36:10.940Z,3.37
2018-06-22T03:41:14.286Z,4.13
2018-06-22T03:46:17.233Z,3.97
2018-06-22T03:51:20.646Z,4.57
2018-06-22T03:56:24.475Z,4.30
2018-06-22T04:01:27.726Z,3.87
2018-06-22T04:06:31.664Z,3.07
2018-06-22T04:11:34.829Z,4.60
2018-06-22T04:16:37.915Z,4.50
2018-06-22T04:21:41.359Z,4.20
2018-06-22T04:26:44.851Z,4.20
2018-06-22T04:31:48.370Z,4.93
2018-06-22T04:36:51.467Z,5.27
2018-06-22T04:41:54.642Z,4.67
2018-06-22T04:46:57.567Z,4.60
2018-06-22T04:52:00.641Z,5.67
2018-06-22T04:57:03.596Z,5.17
2018-06-22T05:02:07.022Z,5.57
2018-06-22T05:07:10.014Z,4.70
2018-06-22T05:12:12.912Z,4.90
2018-06-22T05:17:15.853Z,5.90
2018-06-22T05:22:18.828Z,5.20
2018-06-22T05:27:22.385Z,4.83
2018-06-22T05:32:25.648Z,4.97
2018-06-22T05:37:29.799Z,4.50
2018-06-22T05:42:36.580Z,5.53
2018-06-22T05:47:39.912Z,4.67
2018-06-22T05:52:42.853Z,5.77
2018-06-22T05:57:45.761Z,5.47
2018-06-22T06:02:49.262Z,5.23
2018-06-22T06:07:52.412Z,5.07
2018-06-22T06:12:55.272Z,4.40
2018-06-22T06:17:58.190Z,5.40
2018-06-22T06:23:01.153Z,4.37
2018-06-22T06:28:04.089Z,5.47
2018-06-22T06:33:06.961Z,4.90
2018-06-22T06:38:14.093Z,5.67
2018-06-22T06:43:17.280Z,4.70
2018-06-22T06:48:20.176Z,5.50
2018-06-22T06:53:23.075Z,4.07
2018-06-22T06:58:25.966Z,4.30
2018-06-22T07:03:29.113Z,3.93
2018-06-22T07:08:32.606Z,4.23
2018-06-22T07:13:35.566Z,5.43
2018-06-22T07:18:38.471Z,4.93
2018-06-22T07:23:41.551Z,4.57
2018-06-22T07:28:44.448Z,5.37
2018-06-22T07:33:47.380Z,4.47
2018-06-22T07:38:51.206Z,5.10
2018-06-22T07:44:04.696Z,3.03
2018-06-22T07:49:07.861Z,5.37
2018-06-22T07:54:10.788Z,3.37
2018-06-22T07:59:13.688Z,4.87
2018-06-22T08:04:16.639Z,3.63
2018-06-22T08:09:19.826Z,4.70
2018-06-22T08:14:22.740Z,5.03
2018-06-22T08:19:25.610Z,4.70
2018-06-22T08:24:28.540Z,4.40
2018-06-22T08:29:31.521Z,3.80
2018-06-22T08:34:34.368Z,4.30
2018-06-22T08:39:37.410Z,4.30
2018-06-22T08:44:40.573Z,4.70
2018-06-22T08:49:43.521Z,5.73
2018-06-22T08:54:46.615Z,4.97
2018-06-22T08:59:49.531Z,4.80
2018-06-22T09:04:52.505Z,4.70
2018-06-22T09:09:55.421Z,5.50
2018-06-22T09:15:01.434Z,5.30
2018-06-22T09:20:04.901Z,4.80
2018-06-22T09:25:08.072Z,4.90
2018-06-22T09:30:10.935Z,5.00
2018-06-22T09:35:14.121Z,4.30
2018-06-22T09:40:17.108Z,5.03
2018-06-22T09:45:21.555Z,4.10
2018-06-22T09:50:24.539Z,4.57
2018-06-22T09:55:28.121Z,4.23
2018-06-22T10:00:31.001Z,5.57
2018-06-22T10:05:34.037Z,4.07
2018-06-22T10:10:37.619Z,5.23
2018-06-22T10:15:40.752Z,4.40
2018-06-22T10:20:43.913Z,5.17
2018-06-22T10:25:46.870Z,4.23
2018-06-22T10:30:49.933Z,4.37
2018-06-22T10:35:53.232Z,3.73
2018-06-22T10:40:56.107Z,4.57
2018-06-22T10:45:59.284Z,5.30
2018-06-22T10:51:03.246Z,5.33
2018-06-22T10:56:06.280Z,4.70
2018-06-22T11:01:09.213Z,6.20
2018-06-22T11:06:12.200Z,5.00
2018-06-22T11:11:15.271Z,4.50
2018-06-22T11:16:18.140Z,5.07
2018-06-22T11:21:21.078Z,6.10
2018-06-22T11:26:24.274Z,5.20
2018-06-22T11:31:31.814Z,5.23
2018-06-22T11:36:35.103Z,4.83
2018-06-22T11:41:38.920Z,5.27
2018-06-22T11:46:41.864Z,5.80
2018-06-22T11:51:45.161Z,5.30
2018-06-22T11:56:48.637Z,5.30
2018-06-22T12:01:51.531Z,5.47
2018-06-22T12:06:54.803Z,4.63
2018-06-22T12:11:58.013Z,5.07
2018-06-22T12:17:00.923Z,5.20
2018-06-22T12:22:03.894Z,5.30
2018-06-22T12:27:07.253Z,5.10
2018-06-22T12:32:10.140Z,4.83
2018-06-22T12:37:13.036Z,4.27
2018-06-22T12:42:16.119Z,4.33
2018-06-22T12:47:19.036Z,3.80
2018-06-22T12:52:21.942Z,5.03
2018-06-22T12:57:26.137Z,5.00
2018-06-22T13:02:29.157Z,6.10
2018-06-22T13:07:32.252Z,6.60
2018-06-22T13:12:35.176Z,6.40
2018-06-22T13:17:38.073Z,5.37
2018-06-22T13:22:41.597Z,6.20
2018-06-22T13:27:44.822Z,5.03
2018-06-22T13:32:47.905Z,4.50
2018-06-22T13:37:50.863Z,4.27
2018-06-22T13:42:54.222Z,6.00
2018-06-22T13:47:57.219Z,5.57
2018-06-22T13:53:00.141Z,4.50
2018-06-22T13:58:03.332Z,5.07
2018-06-22T14:03:06.575Z,7.40
2018-06-22T14:08:16.350Z,6.23
2018-06-22T14:13:21.598Z,5.17
2018-06-22T14:18:24.940Z,4.43
2018-06-22T14:23:28.646Z,6.40
2018-06-22T14:28:35.185Z,6.23
2018-06-22T14:33:41.616Z,5.47
2018-06-22T14:38:44.698Z,7.03
2018-06-22T14:43:48.765Z,5.53
2018-06-22T14:48:51.756Z,7.80
2018-06-22T14:54:01.684Z,5.83
2018-06-22T14:59:11.234Z,5.43
2018-06-22T15:04:19.889Z,6.47
2018-06-22T15:09:23.211Z,6.27
2018-06-22T15:14:26.464Z,6.03
2018-06-22T15:19:29.733Z,5.90
2018-06-22T15:24:32.664Z,5.20
2018-06-22T15:29:36.049Z,4.57
2018-06-22T15:34:44.565Z,5.77
2018-06-22T15:39:53.090Z,5.57
2018-06-22T15:45:01.585Z,7.43
2018-06-22T15:50:10.202Z,6.00
2018-06-22T15:55:17.923Z,6.03
2018-06-22T16:00:20.934Z,6.53
2018-06-22T16:05:24.671Z,7.10
2018-06-22T16:10:27.733Z,6.50
2018-06-22T16:15:36.487Z,6.80
2018-06-22T16:20:44.836Z,6.00
2018-06-22T16:25:55.089Z,6.93
2018-06-22T16:31:02.070Z,6.33
2018-06-22T16:36:05.768Z,5.83
2018-06-22T16:41:08.693Z,6.77
2018-06-22T16:46:12.847Z,5.30
2018-06-22T16:51:16.428Z,4.80
2018-06-22T16:56:19.562Z,5.23
2018-06-22T17:01:26.571Z,4.50
2018-06-22T17:06:35.393Z,4.87
2018-06-22T17:11:44.127Z,5.30
2018-06-22T17:16:52.690Z,5.27
2018-06-22T17:21:56.366Z,6.10
2018-06-22T17:26:59.294Z,4.80
2018-06-22T17:32:02.341Z,4.93
2018-06-22T17:37:05.500Z,7.20
2018-06-22T17:42:08.847Z,5.63
2018-06-22T17:47:11.960Z,6.30
2018-06-22T17:52:14.923Z,7.03
2018-06-22T17:57:17.964Z,7.73
2018-06-22T18:02:26.993Z,8.10
2018-06-22T18:07:35.049Z,9.10
2018-06-22T18:12:44.591Z,7.70
2018-06-22T18:17:47.971Z,8.73
2018-06-22T18:22:53.135Z,9.23
2018-06-22T18:27:56.119Z,7.30
2018-06-22T18:32:59.316Z,8.27
2018-06-22T18:38:02.321Z,9.73
2018-06-22T18:43:05.681Z,9.73
2018-06-22T18:48:09.398Z,9.20
2018-06-22T18:53:18.415Z,6.90
2018-06-22T18:58:27.170Z,10.60
2018-06-22T19:03:35.775Z,9.37
2018-06-22T19:08:39.134Z,10.20
2018-06-22T19:13:42.631Z,12.97
2018-06-22T19:18:46.435Z,10.30
2018-06-22T19:23:49.631Z,12.07
2018-06-22T19:28:52.507Z,8.57
2018-06-22T19:33:55.945Z,11.53
2018-06-22T19:38:59.280Z,9.87
2018-06-22T19:44:07.908Z,10.90
2018-06-22T19:49:16.807Z,9.83
2018-06-22T19:54:20.284Z,11.03
2018-06-22T19:59:23.206Z,10.27
2018-06-22T20:04:26.398Z,9.20
2018-06-22T20:09:29.563Z,9.83
2018-06-22T20:14:32.724Z,9.87
2018-06-22T20:19:36.085Z,10.20
2018-06-22T20:24:45.132Z,9.67
2018-06-22T20:29:48.194Z,9.87
2018-06-22T20:34:56.869Z,9.67
2018-06-22T20:40:05.225Z,7.97
2018-06-22T20:45:13.732Z,9.57
2018-06-22T20:50:22.600Z,8.87
2018-06-22T20:55:25.520Z,8.37
2018-06-22T21:00:28.784Z,10.13
2018-06-22T21:05:31.882Z,9.73
2018-06-22T21:10:34.799Z,8.63
2018-06-22T21:15:37.789Z,9.40
2018-06-22T21:20:46.551Z,9.90
2018-06-22T21:25:50.962Z,9.23
2018-06-22T21:31:00.495Z,8.70
2018-06-22T21:36:09.416Z,10.00
2018-06-22T21:41:12.566Z,10.03
2018-06-22T21:46:15.746Z,7.60
2018-06-22T21:51:20.337Z,9.23
2018-06-22T21:56:24.238Z,8.83
2018-06-22T22:01:27.278Z,10.70
2018-06-22T22:06:30.245Z,8.70
2018-06-22T22:11:39.173Z,9.63
2018-06-22T22:16:42.876Z,7.93
2018-06-22T22:21:46.721Z,9.90
2018-06-22T22:26:50.040Z,8.60
2018-06-22T22:31:53.688Z,8.60
2018-06-22T22:36:57.792Z,9.27
2018-06-22T22:42:01.347Z,9.77
2018-06-22T22:47:04.759Z,11.00
2018-06-22T22:52:07.980Z,8.07
2018-06-22T22:57:14.143Z,9.13
2018-06-22T23:02:17.844Z,8.17
2018-06-22T23:07:21.224Z,8.60
2018-06-22T23:12:24.162Z,9.43
2018-06-22T23:17:27.664Z,8.23
2018-06-22T23:22:43.188Z,8.57
2018-06-22T23:27:46.459Z,7.53
2018-06-22T23:32:50.396Z,8.30
2018-06-22T23:37:55.229Z,9.03
2018-06-22T23:42:58.576Z,39.07
2018-06-22T23:48:01.594Z,19.60
2018-06-22T23:53:04.812Z,14.17
2018-06-22T23:58:08.176Z,10.97
